Time;durP1;ratioP1;P1;durP2;ratioP2;P2;SDS_P1;SDS_P2;PMS_P1;PMS_P2;Temp;Humidity;BMP_temperature;BMP_pressure;BME280_temperature;BME280_humidity;BME280_pressure;Samples;Min_cycle;Max_cycle;Signal;HPM_P1;HPM_P2
2023/12/03 00:00:41;;;;;;;14.40;7.20;;;;;;;;;;10446463;28;20476;-73
2023/12/03 00:05:46;;;;;;;13.43;7.28;;;;;;;;;;10448377;28;20574;-73
2023/12/03 00:10:51;;;;;;;10.30;6.88;;;;;;;;;;10451020;28;20107;-73
2023/12/03 00:15:54;;;;;;;12.57;7.30;;;;;;;;;;10444472;28;20400;-73
2023/12/03 00:20:59;;;;;;;11.32;6.35;;;;;;;;;;10450503;28;20063;-73
2023/12/03 00:26:02;;;;;;;9.95;6.18;;;;;;;;;;10450753;28;20114;-73
2023/12/03 00:31:06;;;;;;;9.93;6.10;;;;;;;;;;10450715;28;20377;-73
2023/12/03 00:36:11;;;;;;;10.05;6.20;;;;;;;;;;10438944;28;20044;-73
2023/12/03 00:41:14;;;;;;;11.20;5.70;;;;;;;;;;10447069;28;20129;-73
2023/12/03 00:46:19;;;;;;;10.18;6.28;;;;;;;;;;10431347;28;20053;-73
2023/12/03 00:51:23;;;;;;;10.35;6.57;;;;;;;;;;10448329;28;20077;-73
2023/12/03 00:56:27;;;;;;;13.68;7.85;;;;;;;;;;10448135;28;20108;-73
2023/12/03 01:01:30;;;;;;;11.18;6.65;;;;;;;;;;10448413;28;20119;-73
2023/12/03 01:06:35;;;;;;;9.63;5.95;;;;;;;;;;10446825;28;20741;-73
2023/12/03 01:11:41;;;;;;;11.85;6.47;;;;;;;;;;10448978;28;20136;-73
2023/12/03 01:16:46;;;;;;;10.82;6.15;;;;;;;;;;10442679;28;20037;-72
2023/12/03 01:21:50;;;;;;;10.73;6.40;;;;;;;;;;10449159;28;20036;-73
2023/12/03 01:26:54;;;;;;;10.63;6.57;;;;;;;;;;10448055;28;20556;-73
2023/12/03 01:31:57;;;;;;;11.82;6.72;;;;;;;;;;10445577;28;20056;-73
2023/12/03 01:37:02;;;;;;;9.50;5.97;;;;;;;;;;10441624;28;20033;-73
2023/12/03 01:42:06;;;;;;;11.48;7.18;;;;;;;;;;10448221;28;20041;-73
2023/12/03 01:47:09;;;;;;;11.57;6.65;;;;;;;;;;10448467;28;20057;-73
2023/12/03 01:52:15;;;;;;;11.73;7.18;;;;;;;;;;10446019;28;20045;-73
2023/12/03 01:57:19;;;;;;;12.57;7.30;;;;;;;;;;10425981;28;20037;-73
2023/12/03 02:02:22;;;;;;;11.23;6.93;;;;;;;;;;10446079;28;20047;-73
2023/12/03 02:07:27;;;;;;;9.77;5.85;;;;;;;;;;10403350;28;20043;-73
2023/12/03 02:12:30;;;;;;;11.27;6.45;;;;;;;;;;10428117;28;20506;-73
2023/12/03 02:17:33;;;;;;;11.10;6.53;;;;;;;;;;10439041;28;20037;-73
2023/12/03 02:22:43;;;;;;;10.93;6.20;;;;;;;;;;10435759;28;20132;-73
2023/12/03 02:27:46;;;;;;;8.98;5.82;;;;;;;;;;10428852;28;20032;-72
2023/12/03 02:32:49;;;;;;;13.10;7.13;;;;;;;;;;10431472;28;20128;-73
2023/12/03 02:37:54;;;;;;;10.98;6.97;;;;;;;;;;10441843;28;20191;-73
2023/12/03 02:42:57;;;;;;;11.18;6.90;;;;;;;;;;10431500;28;20059;-73
2023/12/03 02:48:00;;;;;;;9.98;6.47;;;;;;;;;;10440357;28;20052;-74
2023/12/03 02:53:05;;;;;;;11.13;7.10;;;;;;;;;;10448578;28;20080;-73
2023/12/03 02:58:09;;;;;;;12.05;7.45;;;;;;;;;;10445803;28;20063;-73
2023/12/03 03:03:12;;;;;;;8.18;5.80;;;;;;;;;;10442106;28;20055;-73
2023/12/03 03:08:16;;;;;;;8.88;5.78;;;;;;;;;;10432297;28;20067;-73
2023/12/03 03:13:20;;;;;;;9.02;5.72;;;;;;;;;;10438524;28;20045;-73
2023/12/03 03:18:23;;;;;;;8.60;5.00;;;;;;;;;;10437290;28;20037;-73
2023/12/03 03:23:27;;;;;;;7.75;5.22;;;;;;;;;;10450282;28;20045;-73
2023/12/03 03:28:31;;;;;;;8.98;5.57;;;;;;;;;;10433506;28;20048;-73
2023/12/03 03:33:34;;;;;;;11.27;6.90;;;;;;;;;;10448366;28;20510;-73
2023/12/03 03:38:38;;;;;;;10.30;6.00;;;;;;;;;;10438043;28;20116;-73
2023/12/03 03:43:42;;;;;;;9.40;5.80;;;;;;;;;;10438328;28;20061;-73
2023/12/03 03:48:45;;;;;;;11.85;6.68;;;;;;;;;;10446837;28;20068;-73
2023/12/03 03:53:50;;;;;;;10.90;5.65;;;;;;;;;;10437630;28;20053;-73
2023/12/03 03:58:53;;;;;;;8.02;4.95;;;;;;;;;;10437669;28;20041;-73
2023/12/03 04:03:56;;;;;;;8.32;5.00;;;;;;;;;;10447618;28;20033;-73
2023/12/03 04:09:01;;;;;;;8.90;5.15;;;;;;;;;;10449286;28;20577;-73
2023/12/03 04:14:04;;;;;;;9.10;5.70;;;;;;;;;;10445835;28;20707;-73
2023/12/03 04:19:08;;;;;;;8.50;5.15;;;;;;;;;;10441328;28;20518;-73
2023/12/03 04:24:12;;;;;;;8.35;4.80;;;;;;;;;;10446422;28;20049;-73
2023/12/03 04:29:16;;;;;;;10.48;5.93;;;;;;;;;;10444749;28;20126;-73
2023/12/03 04:34:19;;;;;;;8.88;5.65;;;;;;;;;;10449195;28;20071;-73
2023/12/03 04:39:23;;;;;;;12.00;7.13;;;;;;;;;;10433681;28;20049;-73
2023/12/03 04:44:27;;;;;;;9.80;5.35;;;;;;;;;;10439123;28;20037;-73
2023/12/03 04:49:30;;;;;;;9.27;5.53;;;;;;;;;;10445675;28;20124;-73
2023/12/03 04:54:35;;;;;;;9.63;5.70;;;;;;;;;;10444782;28;20045;-73
2023/12/03 04:59:38;;;;;;;9.93;6.18;;;;;;;;;;10443945;28;20515;-73
2023/12/03 05:04:42;;;;;;;10.10;6.10;;;;;;;;;;10445520;28;20071;-73
2023/12/03 05:09:46;;;;;;;9.40;6.15;;;;;;;;;;10442000;28;20045;-73
2023/12/03 05:14:49;;;;;;;9.60;6.13;;;;;;;;;;10445118;28;20619;-73
2023/12/03 05:19:53;;;;;;;12.27;7.00;;;;;;;;;;10443063;28;20525;-73
2023/12/03 05:24:57;;;;;;;9.98;6.05;;;;;;;;;;10444919;28;20052;-73
2023/12/03 05:30:01;;;;;;;11.35;6.57;;;;;;;;;;10419366;28;20049;-74
2023/12/03 05:35:04;;;;;;;12.48;7.40;;;;;;;;;;10445279;28;20053;-73
2023/12/03 05:40:11;;;;;;;13.80;8.13;;;;;;;;;;10444260;28;20384;-73
2023/12/03 05:45:14;;;;;;;13.93;8.32;;;;;;;;;;10438143;28;20521;-73
2023/12/03 05:50:18;;;;;;;14.13;7.97;;;;;;;;;;10438888;28;20076;-73
2023/12/03 05:55:22;;;;;;;12.27;6.78;;;;;;;;;;10436349;22;20496;-73
2023/12/03 06:00:26;;;;;;;12.13;6.25;;;;;;;;;;10388325;28;20069;-73
2023/12/03 06:05:29;;;;;;;11.93;6.32;;;;;;;;;;10405177;28;20045;-73
2023/12/03 06:10:34;;;;;;;13.43;6.57;;;;;;;;;;10408360;28;20805;-74
2023/12/03 06:15:37;;;;;;;12.65;6.70;;;;;;;;;;10390412;28;20041;-73
2023/12/03 06:20:40;;;;;;;11.68;6.60;;;;;;;;;;10400933;28;20033;-74
2023/12/03 06:25:45;;;;;;;12.02;6.60;;;;;;;;;;10404621;28;20046;-73
2023/12/03 06:30:48;;;;;;;12.02;6.15;;;;;;;;;;10404824;28;20402;-74
2023/12/03 06:35:51;;;;;;;9.93;5.95;;;;;;;;;;10403528;28;20135;-73
2023/12/03 06:40:56;;;;;;;10.75;5.93;;;;;;;;;;10404654;28;20029;-73
2023/12/03 06:45:59;;;;;;;10.32;6.00;;;;;;;;;;10403769;28;20048;-73
2023/12/03 06:51:03;;;;;;;10.52;5.75;;;;;;;;;;10404465;28;20095;-73
2023/12/03 06:56:11;;;;;;;13.55;7.47;;;;;;;;;;10404053;28;20051;-73
2023/12/03 07:01:14;;;;;;;14.05;7.07;;;;;;;;;;10404512;28;20041;-73
2023/12/03 07:06:17;;;;;;;12.68;7.25;;;;;;;;;;10399457;28;20160;-73
2023/12/03 07:11:22;;;;;;;10.70;6.30;;;;;;;;;;10402070;28;20050;-73
2023/12/03 07:16:25;;;;;;;13.77;7.05;;;;;;;;;;10403205;28;20041;-73
2023/12/03 07:21:28;;;;;;;15.35;8.80;;;;;;;;;;10397206;28;20049;-73
2023/12/03 07:26:33;;;;;;;12.98;7.05;;;;;;;;;;10397956;28;20500;-74
2023/12/03 07:31:36;;;;;;;14.85;7.90;;;;;;;;;;10403715;28;20391;-73
2023/12/03 07:36:40;;;;;;;16.05;8.10;;;;;;;;;;10409958;28;20041;-73
2023/12/03 07:41:50;;;;;;;14.55;7.40;;;;;;;;;;10407416;28;20107;-73
2023/12/03 07:46:54;;;;;;;12.30;6.43;;;;;;;;;;10390134;28;20051;-73
2023/12/03 07:51:57;;;;;;;11.95;6.50;;;;;;;;;;10389026;28;20459;-74
2023/12/03 07:57:02;;;;;;;12.23;6.22;;;;;;;;;;10404009;28;20484;-73
2023/12/03 08:02:05;;;;;;;13.93;7.72;;;;;;;;;;10409451;28;20060;-73
2023/12/03 08:07:09;;;;;;;17.48;8.50;;;;;;;;;;10409881;28;20096;-73
2023/12/03 08:12:14;;;;;;;15.55;8.32;;;;;;;;;;10406185;28;20088;-73
2023/12/03 08:17:17;;;;;;;13.65;8.18;;;;;;;;;;10411952;28;20072;-73
2023/12/03 08:22:20;;;;;;;15.13;8.00;;;;;;;;;;10405929;28;20043;-74
2023/12/03 08:27:25;;;;;;;14.13;7.72;;;;;;;;;;10405486;28;20117;-73
2023/12/03 08:32:28;;;;;;;14.50;7.88;;;;;;;;;;10404678;28;20068;-74
2023/12/03 08:37:31;;;;;;;17.30;9.32;;;;;;;;;;10400403;28;20168;-73
2023/12/03 08:42:38;;;;;;;15.77;8.80;;;;;;;;;;10400228;28;20056;-74
2023/12/03 08:47:42;;;;;;;12.07;7.13;;;;;;;;;;10401343;28;20065;-73
2023/12/03 08:52:45;;;;;;;14.75;7.45;;;;;;;;;;10397057;28;20112;-73
2023/12/03 08:57:50;;;;;;;14.07;7.63;;;;;;;;;;10400336;28;20045;-73
2023/12/03 09:02:53;;;;;;;17.70;9.20;;;;;;;;;;10399832;28;20069;-73
2023/12/03 09:07:56;;;;;;;12.82;6.78;;;;;;;;;;10401892;28;20526;-73
2023/12/03 09:13:01;;;;;;;12.00;6.97;;;;;;;;;;10408799;28;20420;-74
2023/12/03 09:18:05;;;;;;;13.50;7.32;;;;;;;;;;10409801;28;20471;-73
2023/12/03 09:23:10;;;;;;;13.07;6.53;;;;;;;;;;10403108;28;20069;-73
2023/12/03 09:28:15;;;;;;;12.75;7.07;;;;;;;;;;10404579;28;20543;-73
2023/12/03 09:33:19;;;;;;;16.90;9.65;;;;;;;;;;10400813;28;20049;-73
2023/12/03 09:38:22;;;;;;;13.70;8.30;;;;;;;;;;10402825;28;20033;-73
2023/12/03 09:43:28;;;;;;;12.13;7.60;;;;;;;;;;10401790;28;20053;-73
2023/12/03 09:48:34;;;;;;;11.23;6.45;;;;;;;;;;10402932;28;20037;-73
2023/12/03 09:53:38;;;;;;;14.93;8.70;;;;;;;;;;10401423;28;20053;-73
2023/12/03 09:58:46;;;;;;;12.60;7.07;;;;;;;;;;10403831;28;20046;-73
2023/12/03 10:03:51;;;;;;;13.23;7.53;;;;;;;;;;10401156;28;20056;-73
2023/12/03 10:08:55;;;;;;;11.10;6.50;;;;;;;;;;10405141;28;20469;-73
2023/12/03 10:14:01;;;;;;;9.68;5.80;;;;;;;;;;10388172;28;20492;-73
2023/12/03 10:19:04;;;;;;;;;;;;;;;;;;10391435;28;20049;-73
2023/12/03 10:24:08;;;;;;;10.43;6.30;;;;;;;;;;10402262;28;19921;-73
2023/12/03 10:29:15;;;;;;;13.45;7.40;;;;;;;;;;10402012;28;20045;-73
2023/12/03 10:34:19;;;;;;;28.65;15.05;;;;;;;;;;10400713;28;20041;-73
2023/12/03 10:39:23;;;;;;;22.40;12.40;;;;;;;;;;10401668;28;20045;-73
2023/12/03 10:44:28;;;;;;;18.58;10.23;;;;;;;;;;10386167;28;20069;-73
2023/12/03 10:49:33;;;;;;;17.75;10.25;;;;;;;;;;10402053;28;20415;-73
2023/12/03 10:54:36;;;;;;;21.17;11.93;;;;;;;;;;10397076;28;20551;-73
2023/12/03 10:59:44;;;;;;;17.55;9.45;;;;;;;;;;10398847;28;20120;-73
2023/12/03 11:04:55;;;;;;;22.42;13.43;;;;;;;;;;10398477;28;20033;-73
2023/12/03 11:09:58;;;;;;;18.48;10.70;;;;;;;;;;10409695;28;20037;-73
2023/12/03 11:15:03;;;;;;;15.73;8.75;;;;;;;;;;10406989;28;20045;-73
2023/12/03 11:20:10;;;;;;;17.10;9.60;;;;;;;;;;10407398;28;20037;-73
2023/12/03 11:25:14;;;;;;;19.00;10.35;;;;;;;;;;10407794;28;20128;-73
2023/12/03 11:30:37;;;;;;;19.67;11.57;;;;;;;;;;10410344;28;20044;-73
2023/12/03 11:35:42;;;;;;;16.15;9.02;;;;;;;;;;10410139;28;20524;-73
2023/12/03 11:40:45;;;;;;;18.40;9.75;;;;;;;;;;10410265;28;20037;-73
2023/12/03 11:45:50;;;;;;;18.58;10.75;;;;;;;;;;10409841;28;20065;-73
2023/12/03 11:50:56;;;;;;;15.80;9.10;;;;;;;;;;10405785;28;20092;-73
2023/12/03 12:01:40;;;;;;;12.55;7.18;;;;;;;;;;2899804;26;20044;-73
2023/12/03 12:06:43;;;;;;;10.35;5.78;;;;;;;;;;10476944;28;20118;-74
2023/12/03 12:11:47;;;;;;;9.40;5.70;;;;;;;;;;10467184;28;20051;-73
2023/12/03 12:16:52;;;;;;;9.75;6.03;;;;;;;;;;10453247;22;20060;-87
2023/12/03 12:21:57;;;;;;;13.45;7.45;;;;;;;;;;10350183;28;20061;-84
2023/12/03 12:27:03;;;;;;;17.70;9.77;;;;;;;;;;10329676;28;20054;-83
2023/12/03 12:32:08;;;;;;;16.75;9.82;;;;;;;;;;10348606;28;20084;-84
2023/12/03 12:37:12;;;;;;;16.77;9.32;;;;;;;;;;10350733;28;20054;-82
2023/12/03 12:42:24;;;;;;;19.45;10.80;;;;;;;;;;10336480;28;20057;-83
2023/12/03 12:47:36;;;;;;;23.48;12.15;;;;;;;;;;10323529;28;20070;-83
2023/12/03 12:52:40;;;;;;;20.02;11.93;;;;;;;;;;10322540;28;20100;-83
2023/12/03 12:57:44;;;;;;;16.67;10.90;;;;;;;;;;10321480;28;20054;-82
2023/12/03 13:02:48;;;;;;;21.42;12.85;;;;;;;;;;10340507;28;20419;-82
2023/12/03 13:07:54;;;;;;;21.08;12.43;;;;;;;;;;10326416;28;20593;-83
2023/12/03 13:12:57;;;;;;;21.42;12.52;;;;;;;;;;10330801;28;20049;-84
2023/12/03 13:18:02;;;;;;;18.27;10.45;;;;;;;;;;10334673;28;20073;-82
2023/12/03 13:23:07;;;;;;;16.75;10.00;;;;;;;;;;10348061;28;20509;-82
2023/12/03 13:28:12;;;;;;;18.05;11.27;;;;;;;;;;10341190;28;20149;-83
2023/12/03 13:33:17;;;;;;;21.63;12.80;;;;;;;;;;10351187;28;20056;-82
2023/12/03 13:38:21;;;;;;;20.90;12.25;;;;;;;;;;10316629;28;20062;-84
2023/12/03 13:43:28;;;;;;;18.52;10.32;;;;;;;;;;10280366;28;20053;-82
2023/12/03 13:48:33;;;;;;;23.30;12.70;;;;;;;;;;10285800;28;20092;-82
2023/12/03 13:53:36;;;;;;;19.70;11.73;;;;;;;;;;10297897;28;20141;-83
2023/12/03 13:58:40;;;;;;;21.02;11.85;;;;;;;;;;10286733;28;20046;-83
2023/12/03 14:03:45;;;;;;;19.00;11.63;;;;;;;;;;10289325;28;20049;-82
2023/12/03 14:08:48;;;;;;;21.52;12.40;;;;;;;;;;10285520;28;21154;-83
2023/12/03 14:13:54;;;;;;;21.30;11.13;;;;;;;;;;10283980;28;20077;-85
2023/12/03 14:19:02;;;;;;;17.02;10.73;;;;;;;;;;10288936;28;20137;-84
2023/12/03 14:24:06;;;;;;;20.58;11.38;;;;;;;;;;10292964;28;20719;-82
2023/12/03 14:35:20;;;;;;;21.52;11.70;;;;;;;;;;10357106;28;20598;-84
2023/12/03 14:40:23;;;;;;;21.92;11.52;;;;;;;;;;10356075;28;20104;-84
2023/12/03 14:45:27;;;;;;;20.30;11.88;;;;;;;;;;10356463;28;20507;-84
2023/12/03 14:50:32;;;;;;;19.88;10.80;;;;;;;;;;10361267;28;20390;-84
2023/12/03 14:55:36;;;;;;;13.13;7.78;;;;;;;;;;10357289;28;20054;-85
2023/12/03 15:00:39;;;;;;;13.60;8.88;;;;;;;;;;10348870;28;20188;-83
2023/12/03 15:05:44;;;;;;;12.88;8.00;;;;;;;;;;10358252;28;20077;-83
2023/12/03 15:10:48;;;;;;;10.70;6.80;;;;;;;;;;10354183;28;20050;-85
2023/12/03 15:15:51;;;;;;;12.75;8.00;;;;;;;;;;10355301;28;20042;-81
2023/12/03 15:20:56;;;;;;;18.52;9.52;;;;;;;;;;10352475;28;20128;-81
2023/12/03 15:26:03;;;;;;;12.30;7.63;;;;;;;;;;10356316;28;20816;-81
2023/12/03 15:31:07;;;;;;;14.45;8.32;;;;;;;;;;10365858;28;20090;-81
2023/12/03 15:36:13;;;;;;;21.83;10.88;;;;;;;;;;10361054;28;20140;-81
2023/12/03 15:41:20;;;;;;;13.80;8.00;;;;;;;;;;10342582;28;20208;-80
2023/12/03 15:46:24;;;;;;;12.00;6.93;;;;;;;;;;10344210;28;20046;-81
2023/12/03 15:51:30;;;;;;;11.50;7.05;;;;;;;;;;10337521;28;20055;-81
2023/12/03 15:56:34;;;;;;;16.55;9.07;;;;;;;;;;10352592;28;20056;-82
2023/12/03 16:01:38;;;;;;;14.20;8.30;;;;;;;;;;10339707;28;20054;-81
2023/12/03 16:06:46;;;;;;;19.60;11.38;;;;;;;;;;10347884;28;20100;-81
2023/12/03 16:11:53;;;;;;;16.13;9.32;;;;;;;;;;10348884;28;20046;-81
2023/12/03 16:17:27;;;;;;;19.77;11.53;;;;;;;;;;10349374;28;20046;-81
2023/12/03 16:22:35;;;;;;;20.83;12.60;;;;;;;;;;10349196;28;20048;-81
2023/12/03 16:27:39;;;;;;;23.02;14.18;;;;;;;;;;10338678;28;20046;-81
2023/12/03 16:32:42;;;;;;;24.90;13.07;;;;;;;;;;10335956;28;20053;-81
2023/12/03 16:37:48;;;;;;;25.33;14.02;;;;;;;;;;10349943;28;20057;-81
2023/12/03 16:42:51;;;;;;;22.10;12.43;;;;;;;;;;10340430;28;20061;-81
2023/12/03 16:47:58;;;;;;;24.60;13.98;;;;;;;;;;10345319;28;20054;-80
2023/12/03 16:53:16;;;;;;;17.98;9.85;;;;;;;;;;10343756;28;20485;-80
2023/12/03 16:58:20;;;;;;;18.73;10.98;;;;;;;;;;10350919;28;20050;-81
2023/12/03 17:03:23;;;;;;;14.90;8.10;;;;;;;;;;10340243;28;20054;-81
2023/12/03 17:08:28;;;;;;;11.82;7.30;;;;;;;;;;10352074;28;20557;-81
2023/12/03 17:13:32;;;;;;;11.68;6.82;;;;;;;;;;10338696;28;20053;-81
2023/12/03 17:18:36;;;;;;;12.55;7.20;;;;;;;;;;10348558;28;20100;-81
2023/12/03 17:23:41;;;;;;;12.02;7.20;;;;;;;;;;10339289;28;20072;-81
2023/12/03 17:28:44;;;;;;;13.90;7.28;;;;;;;;;;10342148;28;20046;-81
2023/12/03 17:33:48;;;;;;;20.33;12.25;;;;;;;;;;10345318;28;20041;-81
2023/12/03 17:38:52;;;;;;;20.10;11.20;;;;;;;;;;10338420;28;20541;-81
2023/12/03 17:43:56;;;;;;;19.40;10.15;;;;;;;;;;10351560;28;20137;-81
2023/12/03 17:49:05;;;;;;;13.82;7.90;;;;;;;;;;10337475;28;20120;-80
2023/12/03 17:54:10;;;;;;;13.35;8.15;;;;;;;;;;10401499;22;20064;-72
2023/12/03 17:59:13;;;;;;;20.02;10.93;;;;;;;;;;10448470;28;20132;-74
2023/12/03 18:04:17;;;;;;;18.85;10.95;;;;;;;;;;10425174;28;20055;-74
2023/12/03 18:09:22;;;;;;;20.23;11.07;;;;;;;;;;10445968;28;20052;-74
2023/12/03 18:14:25;;;;;;;20.42;11.95;;;;;;;;;;10438980;28;20045;-74
2023/12/03 18:19:28;;;;;;;18.98;10.88;;;;;;;;;;10443700;28;20056;-74
2023/12/03 18:24:33;;;;;;;16.70;9.77;;;;;;;;;;10442466;28;20052;-74
2023/12/03 18:29:36;;;;;;;15.30;8.80;;;;;;;;;;10447311;28;20124;-74
2023/12/03 18:34:41;;;;;;;13.02;7.50;;;;;;;;;;10440208;28;20041;-74
2023/12/03 18:39:46;;;;;;;17.95;11.23;;;;;;;;;;10444666;28;20057;-74
2023/12/03 18:44:49;;;;;;;16.63;9.50;;;;;;;;;;10446960;28;20041;-74
2023/12/03 18:49:52;;;;;;;17.35;9.60;;;;;;;;;;10444010;28;20040;-74
2023/12/03 18:54:57;;;;;;;15.75;8.95;;;;;;;;;;10439992;28;20049;-74
2023/12/03 19:00:00;;;;;;;16.20;9.75;;;;;;;;;;10439010;28;20063;-74
2023/12/03 19:05:04;;;;;;;16.90;9.85;;;;;;;;;;10440471;28;20611;-74
2023/12/03 19:10:09;;;;;;;18.55;11.00;;;;;;;;;;10432448;28;20440;-74
2023/12/03 19:15:12;;;;;;;14.80;9.40;;;;;;;;;;10435089;28;20110;-74
2023/12/03 19:20:17;;;;;;;16.45;9.38;;;;;;;;;;10431312;28;20057;-74
2023/12/03 19:25:21;;;;;;;14.52;8.93;;;;;;;;;;10442531;28;20049;-74
2023/12/03 19:30:25;;;;;;;14.18;8.23;;;;;;;;;;10452676;28;20229;-74
2023/12/03 19:35:28;;;;;;;13.57;8.25;;;;;;;;;;10450384;28;20047;-74
2023/12/03 19:40:33;;;;;;;17.65;9.57;;;;;;;;;;10445037;28;20060;-74
2023/12/03 19:45:36;;;;;;;15.75;9.57;;;;;;;;;;10443070;28;20052;-74
2023/12/03 19:50:39;;;;;;;20.70;11.18;;;;;;;;;;10452291;28;20420;-74
2023/12/03 19:55:45;;;;;;;22.50;13.07;;;;;;;;;;10437944;28;20055;-72
2023/12/03 20:00:49;;;;;;;13.85;9.10;;;;;;;;;;10439401;28;20507;-74
2023/12/03 20:05:52;;;;;;;11.48;7.18;;;;;;;;;;10450766;28;20049;-74
2023/12/03 20:10:57;;;;;;;13.70;7.93;;;;;;;;;;10447246;28;20147;-74
2023/12/03 20:16:01;;;;;;;18.17;10.38;;;;;;;;;;10448716;28;20037;-74
2023/12/03 20:21:06;;;;;;;15.23;9.23;;;;;;;;;;10445923;28;20689;-74
2023/12/03 20:26:10;;;;;;;15.57;9.45;;;;;;;;;;10450538;28;20076;-74
2023/12/03 20:31:14;;;;;;;14.55;8.70;;;;;;;;;;10448158;28;20045;-74
2023/12/03 20:36:17;;;;;;;13.52;8.95;;;;;;;;;;10446383;28;20561;-74
2023/12/03 20:41:23;;;;;;;17.38;10.90;;;;;;;;;;10444283;28;20048;-74
2023/12/03 20:46:26;;;;;;;17.83;10.52;;;;;;;;;;10442727;28;20067;-74
2023/12/03 20:51:30;;;;;;;18.30;9.50;;;;;;;;;;10449020;28;20144;-74
2023/12/03 20:56:35;;;;;;;16.15;9.70;;;;;;;;;;10447993;28;20112;-74
2023/12/03 21:01:38;;;;;;;17.85;10.80;;;;;;;;;;10446803;28;20037;-73
2023/12/03 21:06:41;;;;;;;18.73;10.85;;;;;;;;;;10447750;28;20048;-74
2023/12/03 21:11:46;;;;;;;14.32;8.52;;;;;;;;;;10444054;28;20073;-74
2023/12/03 21:16:50;;;;;;;13.48;7.70;;;;;;;;;;10449882;28;20063;-74
2023/12/03 21:21:53;;;;;;;15.23;9.20;;;;;;;;;;10442004;28;20057;-74
2023/12/03 21:26:57;;;;;;;15.75;9.10;;;;;;;;;;10437751;28;20075;-74
2023/12/03 21:32:01;;;;;;;17.60;10.52;;;;;;;;;;10443878;28;20529;-74
2023/12/03 21:37:05;;;;;;;19.70;10.63;;;;;;;;;;10439009;28;20479;-73
2023/12/03 21:42:10;;;;;;;14.13;8.13;;;;;;;;;;10439865;28;20053;-74
2023/12/03 21:47:14;;;;;;;16.30;10.18;;;;;;;;;;10447305;28;20045;-74
2023/12/03 21:52:17;;;;;;;19.50;12.35;;;;;;;;;;10445571;28;20617;-74
2023/12/03 21:57:22;;;;;;;17.38;10.55;;;;;;;;;;10444106;28;20415;-74
2023/12/03 22:02:25;;;;;;;18.73;10.30;;;;;;;;;;10447977;28;20273;-74
2023/12/03 22:07:28;;;;;;;21.42;11.55;;;;;;;;;;10434980;28;20056;-74
2023/12/03 22:12:33;;;;;;;17.90;10.27;;;;;;;;;;10434910;28;20064;-74
2023/12/03 22:17:36;;;;;;;13.32;7.97;;;;;;;;;;10441286;28;20049;-74
2023/12/03 22:22:40;;;;;;;16.77;10.63;;;;;;;;;;10422424;28;20052;-74
2023/12/03 22:27:44;;;;;;;15.38;9.23;;;;;;;;;;10446924;28;20571;-73
2023/12/03 22:32:47;;;;;;;14.52;8.35;;;;;;;;;;10440365;28;20812;-73
2023/12/03 22:37:51;;;;;;;14.50;9.18;;;;;;;;;;10446680;28;20127;-74
2023/12/03 22:42:55;;;;;;;17.88;10.65;;;;;;;;;;10446849;28;20056;-74
2023/12/03 22:47:59;;;;;;;10.80;7.20;;;;;;;;;;10443227;28;20053;-74
2023/12/03 22:53:02;;;;;;;12.00;6.13;;;;;;;;;;10441950;28;20049;-74
2023/12/03 22:58:07;;;;;;;10.25;5.82;;;;;;;;;;10436639;28;20147;-74
2023/12/03 23:03:10;;;;;;;9.52;5.65;;;;;;;;;;10443670;28;20144;-74
2023/12/03 23:08:13;;;;;;;8.88;5.45;;;;;;;;;;10450344;28;20127;-74
2023/12/03 23:13:18;;;;;;;9.10;5.50;;;;;;;;;;10450557;28;20511;-74
2023/12/03 23:18:21;;;;;;;8.38;5.70;;;;;;;;;;10445809;28;20045;-74
2023/12/03 23:23:24;;;;;;;10.20;5.90;;;;;;;;;;10453274;28;20044;-74
2023/12/03 23:28:29;;;;;;;8.95;5.97;;;;;;;;;;10450108;28;20049;-74
2023/12/03 23:33:32;;;;;;;8.38;5.43;;;;;;;;;;10453482;28;20148;-74
2023/12/03 23:38:36;;;;;;;10.07;5.55;;;;;;;;;;10450293;28;20151;-74
2023/12/03 23:43:40;;;;;;;9.55;5.68;;;;;;;;;;10441320;28;20045;-74
2023/12/03 23:48:43;;;;;;;10.95;6.35;;;;;;;;;;10449037;28;20041;-74
2023/12/03 23:53:46;;;;;;;9.02;5.88;;;;;;;;;;10451649;28;20064;-74
2023/12/03 23:58:53;;;;;;;9.10;5.88;;;;;;;;;;10446182;28;20057;-74
